Time;durP1;ratioP1;P1;durP2;ratioP2;P2;SDS_P1;SDS_P2;PMS_P1;PMS_P2;Temp;Humidity;BMP_temperature;BMP_pressure;BME280_temperature;BME280_humidity;BME280_pressure;Samples;Min_cycle;Max_cycle;Signal;HPM_P1;HPM_P2
2021/11/16 00:00:41;;;;;;;;;;;;;;;18.61;67.88;102469.44;5080656;28;1985;-38
2021/11/16 00:03:08;;;;;;;;;;;;;;;19.03;66.65;102467.81;5081021;28;1835;-38
2021/11/16 00:05:37;;;;;;;;;;;;;;;19.11;67.44;102459.31;5082213;28;1933;-38
2021/11/16 00:08:04;;;;;;;;;;;;;;;18.86;67.46;102462.63;5082508;28;1630;-38
2021/11/16 00:10:30;;;;;;;;;;;;;;;18.66;68.63;102462.00;5092761;28;1461;-38
2021/11/16 00:12:58;;;;;;;;;;;;;;;18.58;68.68;102469.63;5087502;28;2234;-38
2021/11/16 00:15:25;;;;;;;;;;;;;;;19.02;67.54;102466.13;5088848;28;1474;-38
2021/11/16 00:17:53;;;;;;;;;;;;;;;19.20;67.24;102469.47;5087641;28;1593;-39
2021/11/16 00:20:28;;;;;;;;;;;;;;;18.90;67.38;102456.16;5082496;28;1967;-38
2021/11/16 00:23:16;;;;;;;;;;;;;;;18.65;68.48;102468.28;5087877;28;1549;-39
2021/11/16 00:25:47;;;;;;;;;;;;;;;18.79;68.13;102461.25;5087545;28;1950;-38
2021/11/16 00:28:18;;;;;;;;;;;;;;;19.31;65.73;102458.06;5088060;28;1501;-39
2021/11/16 00:30:45;;;;;;;;;;;;;;;19.07;66.58;102447.91;5077614;28;1611;-39
2021/11/16 00:33:12;;;;;;;;;;;;;;;18.80;67.90;102463.00;5086772;28;1735;-38
2021/11/16 00:35:39;;;;;;;;;;;;;;;18.60;67.90;102448.09;5081432;28;1468;-38
2021/11/16 00:38:15;;;;;;;;;;;;;;;18.73;67.84;102461.63;5080906;28;1667;-38
2021/11/16 00:40:45;;;;;;;;;;;;;;;19.20;66.42;102456.06;5076051;28;1976;-39
2021/11/16 00:43:17;;;;;;;;;;;;;;;18.99;67.74;102460.94;5083220;28;1926;-38
2021/11/16 00:45:48;;;;;;;;;;;;;;;18.74;67.98;102463.34;5082081;28;1662;-39
2021/11/16 00:48:16;;;;;;;;;;;;;;;18.59;67.87;102463.31;5076184;28;1084;-38
2021/11/16 00:50:44;;;;;;;;;;;;;;;18.87;67.72;102459.00;5086121;28;1751;-38
2021/11/16 00:53:12;;;;;;;;;;;;;;;19.32;65.68;102467.84;5089595;28;1555;-38
2021/11/16 00:55:49;;;;;;;;;;;;;;;18.98;67.40;102469.94;5081869;28;1488;-38
2021/11/16 00:58:16;;;;;;;;;;;;;;;18.69;68.31;102464.47;5082448;28;1505;-38
2021/11/16 01:00:46;;;;;;;;;;;;;;;18.60;67.91;102467.72;5073127;28;1996;-38
2021/11/16 01:03:14;;;;;;;;;;;;;;;19.07;66.43;102458.63;5082502;28;1830;-38
2021/11/16 01:05:43;;;;;;;;;;;;;;;19.17;66.46;102463.44;5080514;28;1576;-38
2021/11/16 01:08:10;;;;;;;;;;;;;;;18.85;67.70;102468.94;5077872;28;1803;-38
2021/11/16 01:10:38;;;;;;;;;;;;;;;18.64;68.66;102466.59;5089375;28;1648;-38
2021/11/16 01:13:07;;;;;;;;;;;;;;;18.76;67.07;102453.38;5080769;28;1245;-38
2021/11/16 01:15:38;;;;;;;;;;;;;;;19.26;67.03;102470.91;5088418;28;1489;-38
2021/11/16 01:18:05;;;;;;;;;;;;;;;19.10;67.02;102468.31;5078791;28;2328;-38
2021/11/16 01:20:32;;;;;;;;;;;;;;;18.79;67.44;102470.19;5078770;28;1902;-39
2021/11/16 01:23:01;;;;;;;;;;;;;;;18.59;68.28;102467.81;5090925;28;1562;-38
2021/11/16 01:25:36;;;;;;;;;;;;;;;18.93;67.71;102480.06;5087029;28;1461;-38
2021/11/16 01:28:07;;;;;;;;;;;;;;;19.38;66.42;102467.47;5086268;28;1320;-38
2021/11/16 01:30:41;;;;;;;;;;;;;;;18.94;66.88;102462.16;5090340;28;1480;-38
2021/11/16 01:33:18;;;;;;;;;;;;;;;18.71;67.72;102455.50;5084579;28;1970;-38
2021/11/16 01:35:53;;;;;;;;;;;;;;;18.67;68.06;102471.75;5079088;28;1808;-38
2021/11/16 01:38:23;;;;;;;;;;;;;;;19.10;67.22;102462.06;5086192;28;1665;-38
2021/11/16 01:40:52;;;;;;;;;;;;;;;19.10;66.31;102467.44;5088632;28;1993;-38
2021/11/16 01:43:27;;;;;;;;;;;;;;;18.82;66.99;102466.44;5090124;28;1550;-39
2021/11/16 01:45:57;;;;;;;;;;;;;;;18.59;67.77;102455.28;5085499;28;1718;-38
2021/11/16 01:48:26;;;;;;;;;;;;;;;18.93;67.11;102471.16;5087308;28;1127;-38
2021/11/16 01:50:55;;;;;;;;;;;;;;;19.36;65.79;102463.13;5074715;28;1154;-38
2021/11/16 01:53:22;;;;;;;;;;;;;;;19.00;66.65;102462.66;5086122;28;1761;-38
2021/11/16 01:55:48;;;;;;;;;;;;;;;18.71;67.54;102452.81;5084123;28;1520;-38
2021/11/16 01:58:17;;;;;;;;;;;;;;;18.60;68.45;102473.09;5087444;28;1598;-39
2021/11/16 02:00:56;;;;;;;;;;;;;;;19.01;66.18;102459.00;5085027;28;1906;-38
2021/11/16 02:03:32;;;;;;;;;;;;;;;19.21;65.74;102459.59;5084484;28;1407;-38
2021/11/16 02:06:22;;;;;;;;;;;;;;;18.87;67.24;102451.81;5080308;28;2188;-38
2021/11/16 02:08:57;;;;;;;;;;;;;;;18.62;68.00;102452.41;5086428;28;1077;-38
2021/11/16 02:11:32;;;;;;;;;;;;;;;18.83;67.41;102454.78;5080269;28;1634;-38
2021/11/16 02:13:59;;;;;;;;;;;;;;;19.27;66.43;102448.50;5091426;28;1063;-38
2021/11/16 02:19:11;;;;;;;;;;;;;;;18.69;67.07;102459.13;5083899;28;2667;-38
2021/11/16 02:21:39;;;;;;;;;;;;;;;18.61;67.37;102472.13;5081403;28;1991;-38
2021/11/16 02:24:06;;;;;;;;;;;;;;;19.01;66.12;102472.41;5084510;28;1576;-38
2021/11/16 02:26:42;;;;;;;;;;;;;;;19.20;65.96;102480.19;5087303;28;1493;-38
2021/11/16 02:29:12;;;;;;;;;;;;;;;18.84;67.13;102475.25;5077889;28;1640;-39
2021/11/16 02:31:43;;;;;;;;;;;;;;;18.62;67.11;102481.00;5085536;28;1504;-38
2021/11/16 02:34:11;;;;;;;;;;;;;;;18.79;67.04;102469.28;5084098;28;1516;-38
2021/11/16 02:36:41;;;;;;;;;;;;;;;19.27;65.66;102453.84;5080799;28;1630;-39
2021/11/16 02:39:13;;;;;;;;;;;;;;;18.98;66.87;102456.53;5082585;28;1030;-38
2021/11/16 02:41:40;;;;;;;;;;;;;;;18.67;66.93;102463.72;5086489;28;1909;-38
2021/11/16 02:44:09;;;;;;;;;;;;;;;18.54;67.70;102457.34;5079675;28;1582;-38
2021/11/16 02:46:36;;;;;;;;;;;;;;;19.01;65.81;102459.00;5084502;28;1610;-38
2021/11/16 02:49:04;;;;;;;;;;;;;;;19.16;66.34;102457.22;5081906;28;1856;-38
2021/11/16 02:51:37;;;;;;;;;;;;;;;18.87;66.70;102461.69;5079750;28;1619;-38
2021/11/16 02:54:22;;;;;;;;;;;;;;;18.60;67.73;102462.38;5082930;28;1522;-38
2021/11/16 02:56:51;;;;;;;;;;;;;;;18.77;66.56;102455.13;5072885;28;1808;-38
2021/11/16 02:59:18;;;;;;;;;;;;;;;19.27;65.29;102470.78;5084683;28;1541;-39
2021/11/16 03:01:45;;;;;;;;;;;;;;;18.98;65.92;102467.25;5174027;22;3520;-37
2021/11/16 03:04:19;;;;;;;;;;;;;;;18.69;67.35;102469.84;5064595;28;1809;-37
2021/11/16 03:06:45;;;;;;;;;;;;;;;18.60;67.68;102467.72;5055432;28;1589;-37
2021/11/16 03:09:11;;;;;;;;;;;;;;;18.98;66.20;102451.19;5062694;28;998;-37
2021/11/16 03:11:39;;;;;;;;;;;;;;;19.16;65.37;102453.66;5060796;28;1533;-37
2021/11/16 03:14:06;;;;;;;;;;;;;;;18.84;66.88;102440.41;5051697;28;2035;-37
2021/11/16 03:16:33;;;;;;;;;;;;;;;18.59;66.69;102452.59;5057980;28;1549;-38
2021/11/16 03:19:00;;;;;;;;;;;;;;;18.76;66.93;102442.66;5057553;28;1530;-37
2021/11/16 03:21:27;;;;;;;;;;;;;;;19.25;65.68;102442.34;5060769;28;1985;-37
2021/11/16 03:23:56;;;;;;;;;;;;;;;19.04;65.92;102439.22;5056394;28;1800;-37
2021/11/16 03:26:25;;;;;;;;;;;;;;;18.72;66.82;102443.81;5054993;28;1470;-38
2021/11/16 03:28:53;;;;;;;;;;;;;;;18.53;66.95;102446.75;5055043;28;1533;-38
2021/11/16 03:31:27;;;;;;;;;;;;;;;18.98;66.31;102442.25;5064024;28;1617;-37
2021/11/16 03:33:54;;;;;;;;;;;;;;;19.18;65.46;102435.66;5061043;28;1485;-38
2021/11/16 03:36:21;;;;;;;;;;;;;;;18.85;66.61;102426.06;5055913;28;1734;-38
2021/11/16 03:38:48;;;;;;;;;;;;;;;18.61;67.61;102452.50;5056732;28;961;-37
2021/11/16 03:41:16;;;;;;;;;;;;;;;18.63;66.36;102443.41;5055316;28;1969;-37
2021/11/16 03:43:43;;;;;;;;;;;;;;;19.14;65.56;102444.84;5054635;28;1529;-37
2021/11/16 03:46:11;;;;;;;;;;;;;;;19.01;66.37;102440.25;5063823;28;1583;-37
2021/11/16 03:48:38;;;;;;;;;;;;;;;18.69;66.68;102443.03;5056071;28;1621;-37
2021/11/16 03:51:04;;;;;;;;;;;;;;;18.55;66.54;102451.06;5055483;28;1526;-38
2021/11/16 03:53:31;;;;;;;;;;;;;;;18.93;66.31;102423.78;5056822;28;1133;-37
2021/11/16 03:55:58;;;;;;;;;;;;;;;19.08;65.24;102401.38;5053871;28;2011;-38
2021/11/16 03:58:25;;;;;;;;;;;;;;;18.84;65.74;102413.59;5055223;28;1513;-37
2021/11/16 04:00:54;;;;;;;;;;;;;;;18.61;66.36;102415.00;5052790;28;1981;-37
2021/11/16 04:03:23;;;;;;;;;;;;;;;18.51;66.66;102412.00;5056496;28;2204;-37
2021/11/16 04:05:50;;;;;;;;;;;;;;;19.05;64.78;102414.97;5055983;28;1728;-37
2021/11/16 04:08:16;;;;;;;;;;;;;;;18.98;66.18;102416.31;5054766;28;1677;-37
2021/11/16 04:10:43;;;;;;;;;;;;;;;18.70;65.94;102422.47;5052173;28;1688;-38
2021/11/16 04:13:11;;;;;;;;;;;;;;;18.54;67.18;102403.75;5055332;28;975;-37
2021/11/16 04:15:37;;;;;;;;;;;;;;;18.82;66.19;102421.75;5066704;28;1632;-37
2021/11/16 04:18:04;;;;;;;;;;;;;;;19.24;64.87;102419.19;5053870;28;1547;-37
2021/11/16 04:20:33;;;;;;;;;;;;;;;19.02;65.94;102436.63;5054369;28;1953;-37
2021/11/16 04:23:00;;;;;;;;;;;;;;;18.71;66.59;102429.56;5051155;28;1526;-37
2021/11/16 04:25:27;;;;;;;;;;;;;;;18.53;66.02;102426.16;5055105;28;1091;-37
2021/11/16 04:27:53;;;;;;;;;;;;;;;18.96;64.90;102417.34;5055907;28;1450;-37
2021/11/16 04:30:21;;;;;;;;;;;;;;;19.18;64.99;102422.22;5066635;28;1856;-38
2021/11/16 04:32:48;;;;;;;;;;;;;;;18.83;65.86;102418.13;5053475;28;1885;-37
2021/11/16 04:35:15;;;;;;;;;;;;;;;18.57;66.09;102410.78;5054980;28;1937;-37
2021/11/16 04:37:44;;;;;;;;;;;;;;;18.75;66.09;102414.16;5054703;28;1550;-37
2021/11/16 04:40:12;;;;;;;;;;;;;;;19.20;64.87;102405.13;5054878;28;1933;-37
2021/11/16 04:42:38;;;;;;;;;;;;;;;18.96;65.77;102438.78;5055876;28;2304;-38
2021/11/16 04:45:06;;;;;;;;;;;;;;;18.68;65.64;102427.03;5058508;28;1645;-38
2021/11/16 04:47:37;;;;;;;;;;;;;;;18.49;66.63;102432.66;5060750;28;1584;-37
2021/11/16 04:50:10;;;;;;;;;;;;;;;18.94;65.30;102436.22;5057369;28;1612;-37
2021/11/16 04:52:44;;;;;;;;;;;;;;;19.04;65.19;102441.91;5055075;28;1453;-37
2021/11/16 04:55:32;;;;;;;;;;;;;;;18.72;65.86;102447.38;5050574;28;1064;-37
2021/11/16 05:03:38;;;;;;;;;;;;;;;19.19;63.81;102459.69;5058039;28;1485;-37
2021/11/16 05:06:04;;;;;;;;;;;;;;;18.84;65.10;102468.09;5050099;28;963;-37
2021/11/16 05:08:31;;;;;;;;;;;;;;;18.55;66.16;102466.28;5055060;28;1769;-37
2021/11/16 05:10:59;;;;;;;;;;;;;;;18.59;66.13;102476.69;5053036;28;1534;-37
2021/11/16 05:13:25;;;;;;;;;;;;;;;19.01;64.43;102469.72;5058239;28;1516;-37
2021/11/16 05:15:52;;;;;;;;;;;;;;;19.00;64.75;102468.03;5055726;28;1629;-38
2021/11/16 05:18:18;;;;;;;;;;;;;;;18.65;66.14;102468.28;5053774;28;1566;-37
2021/11/16 05:20:44;;;;;;;;;;;;;;;18.49;66.50;102472.84;5052203;28;1910;-37
2021/11/16 05:23:12;;;;;;;;;;;;;;;18.80;65.65;102468.34;5052569;28;1512;-37
2021/11/16 05:25:39;;;;;;;;;;;;;;;19.28;64.11;102485.09;5063127;28;1439;-37
2021/11/16 05:28:07;;;;;;;;;;;;;;;18.86;64.95;102476.91;5053771;28;1165;-37
2021/11/16 05:30:35;;;;;;;;;;;;;;;18.59;66.65;102495.47;5054904;28;1081;-38
2021/11/16 05:33:01;;;;;;;;;;;;;;;18.60;66.03;102481.13;5054546;28;1826;-37
2021/11/16 05:35:28;;;;;;;;;;;;;;;19.04;65.20;102474.94;5054019;28;1783;-38
2021/11/16 05:37:54;;;;;;;;;;;;;;;19.02;65.59;102492.94;5054336;28;1698;-37
2021/11/16 05:40:21;;;;;;;;;;;;;;;18.72;65.65;102498.28;5055492;28;1393;-37
2021/11/16 05:42:47;;;;;;;;;;;;;;;18.50;66.32;102509.38;5054411;28;2020;-37
2021/11/16 05:45:15;;;;;;;;;;;;;;;18.84;65.25;102512.78;5054374;28;1603;-37
2021/11/16 05:47:42;;;;;;;;;;;;;;;19.21;63.74;102502.50;5053546;28;2761;-37
2021/11/16 05:50:09;;;;;;;;;;;;;;;19.12;63.99;102514.69;5058296;28;1552;-37
2021/11/16 05:52:35;;;;;;;;;;;;;;;18.77;63.24;102501.53;5053420;28;1578;-37
2021/11/16 05:55:02;;;;;;;;;;;;;;;18.46;65.40;102489.09;5054067;28;1240;-37
2021/11/16 05:57:29;;;;;;;;;;;;;;;18.36;64.55;102509.34;5063327;28;1746;-37
2021/11/16 05:59:56;;;;;;;;;;;;;;;18.26;66.13;102512.56;5032497;28;12992;-37
2021/11/16 06:02:24;;;;;;;;;;;;;;;18.50;65.98;102517.41;5059658;28;1898;-37
2021/11/16 06:04:50;;;;;;;;;;;;;;;18.86;65.08;102497.47;5060120;28;1947;-37
2021/11/16 06:07:17;;;;;;;;;;;;;;;18.96;64.29;102504.03;5058669;28;1494;-37
2021/11/16 06:09:43;;;;;;;;;;;;;;;18.78;64.88;102481.84;5064767;28;1339;-37
2021/11/16 06:12:11;;;;;;;;;;;;;;;18.57;65.26;102507.22;5058617;28;1743;-38
2021/11/16 06:14:38;;;;;;;;;;;;;;;18.87;65.28;102504.56;5052653;28;1382;-37
2021/11/16 06:17:05;;;;;;;;;;;;;;;19.14;64.55;102502.03;5056925;28;2026;-37
2021/11/16 06:19:35;;;;;;;;;;;;;;;18.72;65.96;102503.66;5063646;28;2069;-37
2021/11/16 06:22:01;;;;;;;;;;;;;;;18.55;65.40;102511.81;5057770;28;1934;-37
2021/11/16 06:24:28;;;;;;;;;;;;;;;18.74;65.96;102503.53;5062262;28;1531;-37
2021/11/16 06:26:55;;;;;;;;;;;;;;;19.01;64.74;102517.13;5066165;28;1541;-37
2021/11/16 06:29:21;;;;;;;;;;;;;;;18.72;65.85;102516.16;5062095;28;1331;-37
2021/11/16 06:31:49;;;;;;;;;;;;;;;18.45;66.75;102517.69;5060274;28;1805;-38
2021/11/16 06:34:16;;;;;;;;;;;;;;;18.72;65.18;102516.16;5057340;28;1738;-37
2021/11/16 06:36:51;;;;;;;;;;;;;;;18.95;64.68;102517.50;5055907;28;1482;-37
2021/11/16 06:39:19;;;;;;;;;;;;;;;18.54;65.81;102512.75;5059811;28;1722;-37
2021/11/16 06:41:46;;;;;;;;;;;;;;;18.43;66.29;102505.34;5061586;28;1909;-37
2021/11/16 06:44:16;;;;;;;;;;;;;;;18.85;65.46;102501.13;5065439;28;1534;-37
2021/11/16 06:46:44;;;;;;;;;;;;;;;18.73;65.86;102515.22;5058789;28;1821;-37
2021/11/16 06:49:14;;;;;;;;;;;;;;;18.51;66.49;102515.63;5064689;28;1578;-37
2021/11/16 06:51:44;;;;;;;;;;;;;;;18.59;65.61;102516.91;5060369;28;1497;-37
2021/11/16 06:54:15;;;;;;;;;;;;;;;18.48;66.84;102505.94;5068310;28;1737;-37
2021/11/16 06:59:30;;;;;;;;;;;;;;;18.82;65.56;102509.31;5067652;28;2408;-37
2021/11/16 07:04:44;;;;;;;;;;;;;;;18.51;66.80;102497.72;5066655;28;1580;-37
2021/11/16 07:07:12;;;;;;;;;;;;;;;18.44;66.41;102499.03;5066358;28;1592;-37
2021/11/16 07:09:44;;;;;;;;;;;;;;;18.82;65.51;102496.81;5069298;28;1590;-37
2021/11/16 07:14:54;;;;;;;;;;;;;;;18.66;66.39;102499.50;5069447;28;1667;-37
2021/11/16 07:17:21;;;;;;;;;;;;;;;18.59;66.58;102506.19;5071676;28;1401;-37
2021/11/16 07:19:50;;;;;;;;;;;;;;;18.90;65.03;102499.03;5066252;28;2054;-37
2021/11/16 07:22:18;;;;;;;;;;;;;;;19.05;64.72;102491.88;5059161;28;1906;-37
2021/11/16 07:24:47;;;;;;;;;;;;;;;18.84;66.05;102489.53;5068551;28;1772;-37
2021/11/16 07:27:16;;;;;;;;;;;;;;;18.66;66.23;102507.56;5062709;28;1937;-37
2021/11/16 07:29:43;;;;;;;;;;;;;;;18.70;66.23;102513.56;5062590;28;1582;-37
2021/11/16 07:32:12;;;;;;;;;;;;;;;19.05;64.83;102495.41;5065811;28;1606;-37
2021/11/16 07:34:56;;;;;;;;;;;;;;;18.98;64.34;102512.84;5062890;28;1795;-37
2021/11/16 07:37:27;;;;;;;;;;;;;;;18.57;64.93;102501.88;5070570;28;1781;-37
2021/11/16 07:40:00;;;;;;;;;;;;;;;18.61;66.02;102504.28;5071138;28;1886;-37
2021/11/16 07:42:36;;;;;;;;;;;;;;;18.99;64.56;102506.50;5070840;28;1952;-37
2021/11/16 07:45:08;;;;;;;;;;;;;;;18.84;64.11;102502.06;5072912;28;1784;-37
2021/11/16 07:47:39;;;;;;;;;;;;;;;18.47;65.25;102512.25;5069023;28;1728;-37
2021/11/16 07:50:08;;;;;;;;;;;;;;;18.48;65.08;102504.13;5067352;28;1751;-37
2021/11/16 07:52:38;;;;;;;;;;;;;;;18.86;63.70;102505.50;5065863;28;1696;-37
2021/11/16 07:55:06;;;;;;;;;;;;;;;18.76;63.52;102501.63;5067771;28;1506;-37
2021/11/16 07:57:43;;;;;;;;;;;;;;;18.52;64.68;102502.13;5060836;28;2256;-37
2021/11/16 08:00:12;;;;;;;;;;;;;;;18.62;64.80;102479.22;5064697;28;1828;-37
2021/11/16 08:02:40;;;;;;;;;;;;;;;19.01;63.09;102501.91;5065375;28;1906;-37
2021/11/16 08:05:22;;;;;;;;;;;;;;;18.82;61.76;102501.28;5069086;28;1557;-37
2021/11/16 08:08:06;;;;;;;;;;;;;;;18.51;64.11;102508.44;5064004;28;1451;-37
2021/11/16 08:10:40;;;;;;;;;;;;;;;18.84;63.18;102500.25;5068924;28;1694;-37
2021/11/16 08:13:14;;;;;;;;;;;;;;;18.89;62.95;102516.06;5070263;28;1059;-37
2021/11/16 08:15:42;;;;;;;;;;;;;;;18.50;63.48;102501.34;5068309;28;1717;-37
2021/11/16 08:18:14;;;;;;;;;;;;;;;18.59;63.49;102498.13;5070254;28;1941;-37
2021/11/16 08:20:43;;;;;;;;;;;;;;;18.93;62.79;102504.19;5060219;28;1992;-37
2021/11/16 08:23:19;;;;;;;;;;;;;;;18.81;62.56;102503.13;5064013;28;1914;-37
2021/11/16 08:25:56;;;;;;;;;;;;;;;18.50;64.08;102512.06;5059433;28;1841;-37
2021/11/16 08:31:18;;;;;;;;;;;;;;;18.85;62.49;102490.41;5067929;28;2123;-37
2021/11/16 08:33:54;;;;;;;;;;;;;;;18.54;63.55;102481.47;5064492;28;1704;-37
2021/11/16 08:36:32;;;;;;;;;;;;;;;18.53;63.37;102474.41;5070098;28;2274;-37
2021/11/16 08:39:16;;;;;;;;;;;;;;;18.91;62.36;102475.75;5062605;28;1026;-37
2021/11/16 08:41:44;;;;;;;;;;;;;;;18.61;63.46;102469.44;5068593;28;1911;-37
2021/11/16 08:44:20;;;;;;;;;;;;;;;18.47;63.29;102474.75;5063340;28;1929;-37
2021/11/16 08:52:20;;;;;;;;;;;;;;;18.66;62.59;102466.47;5059773;28;2471;-37
2021/11/16 08:55:00;;;;;;;;;;;;;;;18.73;62.92;102473.19;5067736;28;1456;-37
2021/11/16 08:57:36;;;;;;;;;;;;;;;19.13;62.03;102478.00;5058287;28;1633;-37
2021/11/16 09:00:15;;;;;;;;;;;;;;;18.76;61.77;102474.81;5066123;28;1800;-37
2021/11/16 09:02:41;;;;;;;;;;;;;;;18.41;62.69;102465.25;5063382;28;1898;-37
2021/11/16 09:05:22;;;;;;;;;;;;;;;18.78;62.15;102468.44;5061501;28;1686;-37
2021/11/16 09:07:50;;;;;;;;;;;;;;;18.96;61.21;102482.56;5065968;28;1851;-37
2021/11/16 09:10:17;;;;;;;;;;;;;;;18.66;62.61;102464.69;5070273;28;1482;-37
2021/11/16 09:12:46;;;;;;;;;;;;;;;18.72;62.20;102462.56;5066532;28;1529;-36
2021/11/16 09:15:17;;;;;;;;;;;;;;;19.06;61.45;102456.91;5070341;28;1684;-37
2021/11/16 09:17:44;;;;;;;;;;;;;;;18.82;63.01;102461.09;5059569;28;2013;-37
2021/11/16 09:20:19;;;;;;;;;;;;;;;18.58;63.66;102456.25;5067042;28;1497;-37
2021/11/16 09:22:46;;;;;;;;;;;;;;;18.91;63.15;102435.56;5056519;28;1983;-37
2021/11/16 09:25:24;;;;;;;;;;;;;;;19.25;62.38;102447.72;5064318;28;1432;-37
2021/11/16 09:27:59;;;;;;;;;;;;;;;18.88;62.80;102437.47;5065648;28;1866;-37
2021/11/16 09:30:36;;;;;;;;;;;;;;;18.73;63.92;102426.78;5064448;28;2088;-37
2021/11/16 09:33:05;;;;;;;;;;;;;;;19.11;62.97;102421.75;5056416;28;1862;-37
2021/11/16 09:35:57;;;;;;;;;;;;;;;19.03;62.56;102414.19;5054701;28;1567;-37
2021/11/16 09:38:35;;;;;;;;;;;;;;;18.82;62.46;102400.31;5041560;28;1987;-37
2021/11/16 09:41:01;;;;;;;;;;;;;;;19.12;63.18;102406.53;5066166;28;1627;-37
2021/11/16 09:43:29;;;;;;;;;;;;;;;19.46;61.40;102399.91;5053829;28;1910;-37
2021/11/16 09:46:03;;;;;;;;;;;;;;;19.09;62.15;102394.19;5053878;28;1103;-38
2021/11/16 09:48:32;;;;;;;;;;;;;;;18.96;62.90;102383.38;5062166;28;1648;-37
2021/11/16 09:50:58;;;;;;;;;;;;;;;19.34;61.51;102396.19;5061037;28;1457;-37
2021/11/16 09:56:20;;;;;;;;;;;;;;;19.11;63.14;102380.69;5059099;28;1601;-37
2021/11/16 09:58:50;;;;;;;;;;;;;;;19.00;62.21;102367.94;5061353;28;1514;-38
2021/11/16 10:01:22;;;;;;;;;;;;;;;19.42;62.21;102374.25;5048601;28;1525;-37
2021/11/16 10:03:52;;;;;;;;;;;;;;;19.52;61.33;102366.44;5067219;28;2049;-38
2021/11/16 10:06:18;;;;;;;;;;;;;;;19.13;62.35;102360.84;5066267;28;1602;-37
2021/11/16 10:08:45;;;;;;;;;;;;;;;19.02;63.30;102350.81;5051191;28;1411;-37
2021/11/16 10:11:11;;;;;;;;;;;;;;;19.39;62.68;102351.13;5056401;28;1585;-37
2021/11/16 10:13:38;;;;;;;;;;;;;;;19.25;62.69;102338.59;5056924;28;1268;-37
2021/11/16 10:16:07;;;;;;;;;;;;;;;19.11;64.80;102348.50;5066138;28;1604;-37
2021/11/16 10:18:38;;;;;;;;;;;;;;;19.12;64.41;102350.22;5059323;28;1659;-37
2021/11/16 10:23:55;;;;;;;;;;;;;;;19.14;63.79;102351.88;5064338;28;2220;-37
2021/11/16 10:26:24;;;;;;;;;;;;;;;18.98;65.48;102357.34;5069093;28;1883;-37
2021/11/16 10:28:50;;;;;;;;;;;;;;;19.43;64.43;102341.91;5065957;28;1569;-37
2021/11/16 10:31:26;;;;;;;;;;;;;;;19.37;63.94;102350.38;5064138;28;1612;-37
2021/11/16 10:33:56;;;;;;;;;;;;;;;19.18;63.87;102347.16;5066761;28;1611;-38
2021/11/16 10:39:12;;;;;;;;;;;;;;;19.39;63.92;102334.19;5066853;28;1718;-37
2021/11/16 10:41:41;;;;;;;;;;;;;;;19.19;64.72;102356.94;5063702;28;1612;-37
2021/11/16 10:44:11;;;;;;;;;;;;;;;18.94;65.30;102338.84;5066234;28;1905;-38
2021/11/16 10:46:43;;;;;;;;;;;;;;;19.33;63.20;102362.25;5065438;28;1559;-37
2021/11/16 10:49:15;;;;;;;;;;;;;;;19.48;63.37;102347.88;5057589;28;1628;-38
2021/11/16 10:51:43;;;;;;;;;;;;;;;19.18;63.50;102347.16;5056459;28;1521;-37
2021/11/16 10:54:12;;;;;;;;;;;;;;;18.92;64.60;102344.31;5062219;28;1417;-37
2021/11/16 10:56:45;;;;;;;;;;;;;;;19.31;64.42;102366.88;5057849;28;1713;-37
2021/11/16 10:59:16;;;;;;;;;;;;;;;19.10;64.79;102350.34;5060529;28;1462;-37
2021/11/16 11:01:50;;;;;;;;;;;;;;;18.90;64.84;102354.28;5063592;28;1545;-37
2021/11/16 11:04:19;;;;;;;;;;;;;;;19.04;64.49;102354.28;5055785;28;1969;-37
2021/11/16 11:06:49;;;;;;;;;;;;;;;19.48;62.96;102323.72;5065350;28;1618;-37
2021/11/16 11:09:26;;;;;;;;;;;;;;;19.02;64.65;102337.41;5058739;28;991;-37
2021/11/16 11:12:11;;;;;;;;;;;;;;;18.90;64.83;102340.88;5062985;28;1972;-37
2021/11/16 11:14:46;;;;;;;;;;;;;;;19.24;63.51;102325.31;5054082;28;1115;-37
2021/11/16 11:17:16;;;;;;;;;;;;;;;19.40;64.01;102334.09;5060704;28;1071;-37
2021/11/16 11:19:48;;;;;;;;;;;;;;;18.97;64.24;102334.16;5059353;28;1777;-37
2021/11/16 11:22:22;;;;;;;;;;;;;;;18.77;65.75;102330.03;5066062;28;1910;-37
2021/11/16 11:24:56;;;;;;;;;;;;;;;19.22;64.24;102336.13;5069306;28;1528;-37
2021/11/16 11:27:33;;;;;;;;;;;;;;;19.07;63.75;102339.78;5063076;28;1707;-37
2021/11/16 11:30:05;;;;;;;;;;;;;;;18.78;65.17;102323.72;5069118;28;1576;-37
2021/11/16 11:32:37;;;;;;;;;;;;;;;18.80;65.08;102331.66;5071589;28;1496;-37
2021/11/16 11:35:11;;;;;;;;;;;;;;;19.18;63.41;102325.69;5062049;28;1535;-37
2021/11/16 11:37:39;;;;;;;;;;;;;;;18.94;65.10;102329.00;5067615;28;1664;-37
2021/11/16 11:40:07;;;;;;;;;;;;;;;18.72;64.32;102320.53;5067957;28;1584;-37
2021/11/16 11:42:47;;;;;;;;;;;;;;;19.16;63.15;102316.88;5070438;28;1975;-38
2021/11/16 11:45:28;;;;;;;;;;;;;;;19.28;62.74;102300.88;5062393;28;1798;-37
2021/11/16 11:50:51;;;;;;;;;;;;;;;18.95;64.45;102306.59;5060090;28;2349;-37
2021/11/16 11:53:33;;;;;;;;;;;;;;;19.38;63.83;102305.66;5060402;28;1718;-37
2021/11/16 11:58:52;;;;;;;;;;;;;;;19.09;63.73;102303.03;5063896;28;2591;-37
2021/11/16 12:01:21;;;;;;;;;;;;;;;19.44;62.72;102314.16;5063576;28;1721;-37
2021/11/16 12:03:49;;;;;;;;;;;;;;;19.18;64.29;102298.88;5066898;28;1914;-37
2021/11/16 12:06:15;;;;;;;;;;;;;;;18.86;64.88;102309.84;5058033;28;1554;-37
2021/11/16 12:08:42;;;;;;;;;;;;;;;18.98;63.84;102301.03;5060998;28;1444;-37
2021/11/16 12:11:11;;;;;;;;;;;;;;;19.13;64.63;102296.50;5057690;28;1576;-37
2021/11/16 12:13:39;;;;;;;;;;;;;;;19.05;64.21;102288.09;5066662;28;1194;-37
2021/11/16 12:16:07;;;;;;;;;;;;;;;18.83;65.09;102293.97;5065932;28;1513;-37
2021/11/16 12:18:38;;;;;;;;;;;;;;;19.08;63.68;102293.28;5065061;28;1561;-37
2021/11/16 12:21:07;;;;;;;;;;;;;;;19.28;63.66;102289.28;5063467;28;1732;-38
2021/11/16 12:23:44;;;;;;;;;;;;;;;18.87;65.15;102274.06;5063338;28;1974;-37
2021/11/16 12:26:13;;;;;;;;;;;;;;;18.88;65.12;102286.50;5073323;28;1362;-37
2021/11/16 12:28:40;;;;;;;;;;;;;;;19.20;64.26;102291.59;5060582;28;1743;-37
2021/11/16 12:31:09;;;;;;;;;;;;;;;19.13;64.91;102296.50;5062501;28;1487;-37
2021/11/16 12:33:39;;;;;;;;;;;;;;;18.91;64.10;102275.56;5071874;28;1426;-37
2021/11/16 12:36:10;;;;;;;;;;;;;;;19.02;63.91;102288.28;5060361;28;1600;-37
2021/11/16 12:38:56;;;;;;;;;;;;;;;19.32;62.78;102281.88;5071740;28;1824;-37
2021/11/16 12:41:30;;;;;;;;;;;;;;;19.22;64.36;102289.69;5064764;28;1633;-37
2021/11/16 12:43:57;;;;;;;;;;;;;;;18.94;64.18;102282.53;5062546;28;1927;-37
2021/11/16 12:46:26;;;;;;;;;;;;;;;19.32;64.02;102284.56;5058632;28;1709;-37
2021/11/16 12:48:55;;;;;;;;;;;;;;;19.46;63.17;102287.22;5067586;28;1612;-38
2021/11/16 12:51:24;;;;;;;;;;;;;;;19.12;63.79;102277.81;5065741;28;1815;-37
2021/11/16 12:53:56;;;;;;;;;;;;;;;19.08;63.79;102279.88;5070791;28;1584;-37
2021/11/16 12:56:23;;;;;;;;;;;;;;;19.36;63.91;102275.34;5065847;28;1517;-37
2021/11/16 12:58:51;;;;;;;;;;;;;;;19.31;63.16;102272.97;5068002;28;1907;-37
2021/11/16 13:01:37;;;;;;;;;;;;;;;19.02;64.21;102256.09;5064187;28;1865;-37
2021/11/16 13:04:06;;;;;;;;;;;;;;;19.18;64.41;102275.63;5064488;28;1902;-37
2021/11/16 13:06:34;;;;;;;;;;;;;;;19.32;63.82;102252.38;5060728;28;1490;-37
2021/11/16 13:09:01;;;;;;;;;;;;;;;18.97;64.82;102275.19;5063400;28;1513;-37
2021/11/16 13:11:42;;;;;;;;;;;;;;;18.96;64.56;102252.03;5058773;28;1564;-37
2021/11/16 13:14:09;;;;;;;;;;;;;;;19.24;64.76;102239.50;5059387;28;1518;-37
2021/11/16 13:16:36;;;;;;;;;;;;;;;19.30;64.22;102270.41;5060586;28;1537;-37
2021/11/16 13:19:04;;;;;;;;;;;;;;;19.07;64.09;102257.53;5055565;28;1542;-38
2021/11/16 13:21:38;;;;;;;;;;;;;;;19.16;64.86;102264.13;5056058;28;1723;-37
2021/11/16 13:24:07;;;;;;;;;;;;;;;19.42;64.23;102269.59;5061742;28;1914;-37
2021/11/16 13:26:35;;;;;;;;;;;;;;;19.30;64.17;102265.03;5068432;28;1611;-37
2021/11/16 13:29:20;;;;;;;;;;;;;;;18.98;64.97;102259.94;5064170;28;1540;-37
2021/11/16 13:31:51;;;;;;;;;;;;;;;19.42;64.87;102267.78;5064098;28;1724;-37
2021/11/16 13:34:20;;;;;;;;;;;;;;;19.35;64.15;102263.78;5054427;28;1931;-37
2021/11/16 13:36:49;;;;;;;;;;;;;;;19.13;64.18;102263.47;5053721;28;1691;-37
2021/11/16 13:39:24;;;;;;;;;;;;;;;18.93;61.27;102262.94;5057385;28;1329;-37
2021/11/16 13:41:55;;;;;;;;;;;;;;;19.21;62.17;102282.59;5060405;28;1513;-37